Time;durP1;ratioP1;P1;durP2;ratioP2;P2;SDS_P1;SDS_P2;PMS_P1;PMS_P2;Temp;Humidity;BMP_temperature;BMP_pressure;BME280_temperature;BME280_humidity;BME280_pressure;Samples;Min_cycle;Max_cycle;Signal;HPM_P1;HPM_P2
2023/10/31 00:00:36;;;;;;;32.47;17.10;;;8.40;99.90;;;;;;4130283;28;20096;-62
2023/10/31 00:02:37;;;;;;;30.53;16.37;;;8.40;99.90;;;;;;4131588;28;20039;-56
2023/10/31 00:04:39;;;;;;;36.97;16.83;;;8.30;99.90;;;;;;4130503;28;20054;-62
2023/10/31 00:06:40;;;;;;;36.80;17.30;;;8.30;99.90;;;;;;4131551;28;20085;-60
2023/10/31 00:08:41;;;;;;;27.90;15.90;;;8.30;99.90;;;;;;4130178;28;20360;-61
2023/10/31 00:10:44;;;;;;;31.73;15.93;;;8.30;99.90;;;;;;4130815;28;20030;-62
2023/10/31 00:12:45;;;;;;;30.63;16.43;;;8.20;99.90;;;;;;4130527;28;20116;-61
2023/10/31 00:14:46;;;;;;;26.30;14.93;;;8.20;99.90;;;;;;4130845;28;20018;-59
2023/10/31 00:16:48;;;;;;;35.20;16.97;;;8.20;99.90;;;;;;4130311;28;20497;-64
2023/10/31 00:18:49;;;;;;;29.10;15.67;;;8.10;99.90;;;;;;4130028;28;20092;-64
2023/10/31 00:20:50;;;;;;;30.53;15.10;;;8.10;99.90;;;;;;4131160;28;20038;-58
2023/10/31 00:22:52;;;;;;;34.40;15.97;;;8.20;99.90;;;;;;4130142;28;20022;-57
2023/10/31 00:24:53;;;;;;;30.30;15.77;;;8.10;99.90;;;;;;4131129;28;20092;-63
2023/10/31 00:26:54;;;;;;;28.97;16.27;;;8.10;99.90;;;;;;4130348;28;20042;-61
2023/10/31 00:28:55;;;;;;;28.67;15.17;;;8.10;99.90;;;;;;4131377;28;20034;-59
2023/10/31 00:30:56;;;;;;;30.20;15.70;;;8.10;99.90;;;;;;4129986;28;20050;-62
2023/10/31 00:32:57;;;;;;;32.77;16.50;;;8.10;99.90;;;;;;4131084;28;20426;-60
2023/10/31 00:34:59;;;;;;;28.00;15.30;;;8.00;99.90;;;;;;4130307;28;20038;-60
2023/10/31 00:37:00;;;;;;;30.50;15.03;;;8.00;99.90;;;;;;4131299;28;20459;-62
2023/10/31 00:39:01;;;;;;;30.33;14.93;;;8.00;99.90;;;;;;4129947;28;20072;-59
2023/10/31 00:41:03;;;;;;;32.77;15.27;;;7.90;99.90;;;;;;4130799;28;20030;-63
2023/10/31 00:43:04;;;;;;;30.77;15.67;;;7.80;99.90;;;;;;4130424;28;20034;-61
2023/10/31 00:45:05;;;;;;;27.60;13.97;;;7.70;99.90;;;;;;4130919;28;20482;-61
2023/10/31 00:47:06;;;;;;;28.93;14.27;;;7.70;99.90;;;;;;4130348;28;20077;-59
2023/10/31 00:49:07;;;;;;;30.60;15.57;;;7.60;99.90;;;;;;4130487;28;20038;-61
2023/10/31 00:51:09;;;;;;;28.33;14.53;;;7.60;99.90;;;;;;4130779;28;20042;-62
2023/10/31 00:53:10;;;;;;;21.90;12.80;;;7.60;99.90;;;;;;4128622;28;20046;-61
2023/10/31 00:55:11;;;;;;;29.83;14.30;;;7.50;99.90;;;;;;4130627;28;20038;-59
2023/10/31 00:57:12;;;;;;;31.43;14.60;;;7.60;99.90;;;;;;4129412;28;20495;-60
2023/10/31 00:59:13;;;;;;;36.83;15.60;;;7.60;99.90;;;;;;4131096;28;20035;-62
2023/10/31 01:01:14;;;;;;;30.07;15.10;;;7.60;99.90;;;;;;4129627;28;21127;-63
2023/10/31 01:03:16;;;;;;;27.93;12.90;;;7.50;99.90;;;;;;4130582;28;20423;-61
2023/10/31 01:05:17;;;;;;;31.53;13.80;;;7.50;99.90;;;;;;4129475;28;20034;-62
2023/10/31 01:07:18;;;;;;;21.57;11.67;;;7.40;99.90;;;;;;4130559;28;20289;-64
2023/10/31 01:09:19;;;;;;;30.67;12.33;;;7.30;99.90;;;;;;4129531;28;20089;-64
2023/10/31 01:11:20;;;;;;;25.83;13.90;;;7.20;99.90;;;;;;4130395;28;20038;-59
2023/10/31 01:13:21;;;;;;;27.40;13.33;;;7.20;99.90;;;;;;4129755;28;20114;-64
2023/10/31 01:15:23;;;;;;;27.47;13.40;;;7.20;99.90;;;;;;4129718;28;20553;-63
2023/10/31 01:17:24;;;;;;;28.20;13.87;;;7.20;99.90;;;;;;4130151;28;20108;-63
2023/10/31 01:19:25;;;;;;;23.43;13.07;;;7.30;99.90;;;;;;4129636;28;20030;-58
2023/10/31 01:21:26;;;;;;;30.07;15.40;;;7.30;99.90;;;;;;4129888;28;20134;-61
2023/10/31 01:23:27;;;;;;;28.77;15.23;;;7.30;99.90;;;;;;4129600;28;20364;-61
2023/10/31 01:25:28;;;;;;;35.13;16.50;;;7.30;99.90;;;;;;4130516;28;20100;-63
2023/10/31 01:27:29;;;;;;;39.43;20.40;;;7.20;99.90;;;;;;4129015;28;20410;-62
2023/10/31 01:29:31;;;;;;;38.37;17.60;;;7.20;99.90;;;;;;4130544;28;20549;-61
2023/10/31 01:31:33;;;;;;;37.50;18.93;;;7.20;99.90;;;;;;4128829;28;20030;-62
2023/10/31 01:33:34;;;;;;;43.53;18.10;;;7.20;99.90;;;;;;4129946;28;20030;-61
2023/10/31 01:35:35;;;;;;;32.13;16.37;;;7.30;99.90;;;;;;4129231;28;20914;-62
2023/10/31 01:37:36;;;;;;;27.13;15.07;;;7.30;99.90;;;;;;4130125;28;20034;-59
2023/10/31 01:39:37;;;;;;;27.23;15.23;;;7.30;99.90;;;;;;4129611;28;20097;-58
2023/10/31 01:41:44;;;;;;;26.10;15.90;;;7.30;99.90;;;;;;4130154;28;20041;-61
2023/10/31 01:43:45;;;;;;;26.27;13.73;;;7.20;99.90;;;;;;4129249;28;20073;-58
2023/10/31 01:45:46;;;;;;;24.03;12.77;;;7.20;99.90;;;;;;4129726;28;20034;-61
2023/10/31 01:47:49;;;;;;;25.93;13.13;;;7.30;99.90;;;;;;4129402;28;20095;-59
2023/10/31 01:49:52;;;;;;;26.27;13.07;;;7.40;99.90;;;;;;4129471;28;20105;-60
2023/10/31 01:51:53;;;;;;;24.10;12.67;;;7.50;99.90;;;;;;4129602;28;20494;-62
2023/10/31 01:53:55;;;;;;;28.23;13.53;;;7.60;99.90;;;;;;4129131;28;20034;-63
2023/10/31 01:56:01;;;;;;;26.07;14.60;;;7.60;99.90;;;;;;4129906;28;20034;-58
2023/10/31 01:58:03;;;;;;;22.80;13.27;;;7.70;99.90;;;;;;4128711;28;20104;-59
2023/10/31 02:00:05;;;;;;;22.93;12.47;;;7.70;99.90;;;;;;4129662;28;20046;-62
2023/10/31 02:02:07;;;;;;;27.47;13.40;;;7.60;99.90;;;;;;4128404;28;20502;-61
2023/10/31 02:04:08;;;;;;;27.13;12.50;;;7.70;99.90;;;;;;4129514;28;20030;-61
2023/10/31 02:06:10;;;;;;;26.87;14.27;;;7.70;99.90;;;;;;4128849;28;20506;-65
2023/10/31 02:08:11;;;;;;;22.57;10.37;;;7.70;99.90;;;;;;4129970;28;20030;-60
2023/10/31 02:10:12;;;;;;;22.73;11.47;;;7.70;99.90;;;;;;4128714;28;20357;-61
2023/10/31 02:12:37;;;;;;;22.53;11.60;;;7.80;99.90;;;;;;4129751;28;20095;-60
2023/10/31 02:14:38;;;;;;;20.70;11.90;;;7.90;99.90;;;;;;4126925;28;20042;-62
2023/10/31 02:16:39;;;;;;;24.33;11.83;;;8.00;99.90;;;;;;4129368;28;20097;-61
2023/10/31 02:18:41;;;;;;;17.80;10.70;;;8.10;99.90;;;;;;4128533;28;20046;-63
2023/10/31 02:20:42;;;;;;;21.60;10.83;;;8.10;99.90;;;;;;4129424;28;20018;-60
2023/10/31 02:22:43;;;;;;;23.40;11.73;;;8.10;99.90;;;;;;4128696;28;20038;-61
2023/10/31 02:24:44;;;;;;;21.47;11.30;;;8.10;99.90;;;;;;4129293;28;20031;-59
2023/10/31 02:26:45;;;;;;;22.23;11.73;;;8.00;99.90;;;;;;4128295;28;20081;-60
2023/10/31 02:28:46;;;;;;;22.10;12.63;;;8.00;99.90;;;;;;4128732;28;20108;-61
2023/10/31 02:30:48;;;;;;;20.47;11.30;;;8.00;99.90;;;;;;4128703;28;20438;-64
2023/10/31 02:32:49;;;;;;;20.77;11.00;;;8.00;99.90;;;;;;4128237;28;20050;-62
2023/10/31 02:34:50;;;;;;;23.83;11.10;;;8.00;99.90;;;;;;4128958;28;20081;-60
2023/10/31 02:36:51;;;;;;;18.27;9.53;;;8.10;99.90;;;;;;4128181;28;20459;-59
2023/10/31 02:38:53;;;;;;;17.23;9.30;;;8.10;99.90;;;;;;4129229;28;20073;-59
2023/10/31 02:40:54;;;;;;;19.50;10.23;;;8.10;99.90;;;;;;4127998;28;20073;-62
2023/10/31 02:42:55;;;;;;;14.43;9.53;;;8.30;99.90;;;;;;4129354;28;20093;-64
2023/10/31 02:44:56;;;;;;;18.47;9.53;;;8.40;99.90;;;;;;4128376;28;20313;-62
2023/10/31 02:46:57;;;;;;;19.47;9.90;;;8.30;99.90;;;;;;4129146;28;20042;-61
2023/10/31 02:48:58;;;;;;;21.73;10.17;;;8.30;99.90;;;;;;4128008;28;20042;-62
2023/10/31 02:50:59;;;;;;;16.17;8.50;;;8.20;99.90;;;;;;4129493;28;20541;-61
2023/10/31 02:53:02;;;;;;;17.33;8.60;;;8.20;99.90;;;;;;4128268;28;20054;-62
2023/10/31 02:55:03;;;;;;;18.47;9.33;;;8.20;99.90;;;;;;4128542;28;20138;-61
2023/10/31 02:57:04;;;;;;;15.60;9.37;;;8.10;99.90;;;;;;4127999;28;20062;-63
2023/10/31 02:59:05;;;;;;;21.77;10.23;;;8.20;99.90;;;;;;4127383;28;20093;-60
2023/10/31 03:01:07;;;;;;;15.43;9.00;;;8.20;99.90;;;;;;4128276;28;20418;-58
2023/10/31 03:03:08;;;;;;;18.77;9.43;;;8.20;99.90;;;;;;4127866;28;20027;-60
2023/10/31 03:05:09;;;;;;;16.03;9.23;;;8.20;99.90;;;;;;4128419;28;20114;-62
2023/10/31 03:07:10;;;;;;;17.80;8.63;;;8.30;99.90;;;;;;4127769;28;20098;-61
2023/10/31 03:09:11;;;;;;;19.30;9.40;;;8.40;99.90;;;;;;4128805;28;20039;-57
2023/10/31 03:11:26;;;;;;;19.40;8.53;;;8.40;99.90;;;;;;4127844;28;20022;-61
2023/10/31 03:13:27;;;;;;;18.20;9.10;;;8.40;99.90;;;;;;4128950;28;20050;-60
2023/10/31 03:15:29;;;;;;;15.73;8.80;;;8.40;99.90;;;;;;4127381;28;20053;-60
2023/10/31 03:17:30;;;;;;;15.60;9.40;;;8.30;99.90;;;;;;4128981;28;20054;-63
2023/10/31 03:19:31;;;;;;;13.57;8.60;;;8.20;99.90;;;;;;4128105;28;20085;-61
2023/10/31 03:21:32;;;;;;;16.67;8.13;;;8.30;99.90;;;;;;4128925;28;20089;-61
2023/10/31 03:23:33;;;;;;;23.43;9.83;;;8.30;99.90;;;;;;4127805;28;20030;-65
2023/10/31 03:25:34;;;;;;;15.60;7.73;;;8.40;99.90;;;;;;4128626;28;20030;-63
2023/10/31 03:27:36;;;;;;;19.13;8.33;;;8.50;99.90;;;;;;4127317;28;20433;-61
2023/10/31 03:29:37;;;;;;;16.70;9.07;;;8.50;99.90;;;;;;4127188;28;20841;-61
2023/10/31 03:31:38;;;;;;;16.63;8.40;;;8.50;99.90;;;;;;4127550;28;20038;-58
2023/10/31 03:33:40;;;;;;;20.87;7.93;;;8.50;99.90;;;;;;4127387;28;20479;-64
2023/10/31 03:35:41;;;;;;;15.20;7.83;;;8.50;99.90;;;;;;4127981;28;20462;-59
2023/10/31 03:37:42;;;;;;;16.30;9.43;;;8.60;99.90;;;;;;4127211;28;20097;-63
2023/10/31 03:39:43;;;;;;;15.50;7.67;;;8.60;99.90;;;;;;4128588;28;20042;-60
2023/10/31 03:41:46;;;;;;;14.23;7.73;;;8.60;99.90;;;;;;4127037;28;20027;-60
2023/10/31 03:43:47;;;;;;;16.53;8.20;;;8.60;99.90;;;;;;4128177;28;20466;-62
2023/10/31 03:45:49;;;;;;;19.93;9.03;;;8.50;99.90;;;;;;4126828;28;20340;-62
2023/10/31 03:47:50;;;;;;;17.10;7.90;;;8.50;99.90;;;;;;4128166;28;20077;-63
2023/10/31 03:49:51;;;;;;;15.17;8.77;;;8.50;99.90;;;;;;4127476;28;20030;-63
2023/10/31 03:51:52;;;;;;;17.73;8.40;;;8.50;99.90;;;;;;4128426;28;20077;-63
2023/10/31 03:53:53;;;;;;;15.87;8.00;;;8.40;99.90;;;;;;4127729;28;20128;-62
2023/10/31 03:55:54;;;;;;;13.37;7.83;;;8.30;99.90;;;;;;4128565;28;20046;-64
2023/10/31 03:57:56;;;;;;;13.77;7.17;;;8.30;99.90;;;;;;4127546;28;20406;-60
2023/10/31 03:59:57;;;;;;;13.97;7.50;;;8.40;99.90;;;;;;4128208;28;20034;-64
2023/10/31 04:01:58;;;;;;;13.67;7.33;;;8.40;99.90;;;;;;4127163;28;20034;-62
2023/10/31 04:03:59;;;;;;;14.23;7.53;;;8.40;99.90;;;;;;4128167;28;20046;-61
2023/10/31 04:06:00;;;;;;;15.10;7.03;;;8.40;99.90;;;;;;4128110;28;20034;-64
2023/10/31 04:08:02;;;;;;;14.17;8.00;;;8.50;99.90;;;;;;4127241;28;20026;-61
2023/10/31 04:10:03;;;;;;;16.20;8.03;;;8.40;99.90;;;;;;4127594;28;20224;-64
2023/10/31 04:12:05;;;;;;;16.53;8.00;;;8.40;99.90;;;;;;4127346;28;20125;-64
2023/10/31 04:14:06;;;;;;;13.83;7.73;;;8.40;99.90;;;;;;4128064;28;20046;-61
2023/10/31 04:16:07;;;;;;;11.83;7.37;;;8.40;99.90;;;;;;4127201;28;20039;-63
2023/10/31 04:18:08;;;;;;;15.80;7.77;;;8.30;99.90;;;;;;4128741;28;20046;-64
2023/10/31 04:20:10;;;;;;;17.97;7.80;;;8.30;99.90;;;;;;4126878;28;20081;-61
2023/10/31 04:22:11;;;;;;;13.07;7.60;;;8.30;99.90;;;;;;4128489;28;20108;-61
2023/10/31 04:24:12;;;;;;;11.67;6.53;;;8.40;99.90;;;;;;4127118;28;20038;-60
2023/10/31 04:26:14;;;;;;;15.37;8.10;;;8.40;99.90;;;;;;4128114;28;20434;-60
2023/10/31 04:28:15;;;;;;;12.60;6.80;;;8.50;99.90;;;;;;4128293;28;20116;-64
2023/10/31 04:30:16;;;;;;;11.37;6.93;;;8.50;99.90;;;;;;4130912;28;20390;-64
2023/10/31 04:32:17;;;;;;;12.50;6.03;;;8.50;99.90;;;;;;4130279;28;20430;-62
2023/10/31 04:34:18;;;;;;;12.03;6.33;;;8.50;99.90;;;;;;4130380;28;20085;-64
2023/10/31 04:36:19;;;;;;;15.60;5.77;;;8.50;99.90;;;;;;4130317;28;20034;-63
2023/10/31 04:38:21;;;;;;;11.03;6.07;;;8.60;99.90;;;;;;4130294;28;20050;-60
2023/10/31 04:40:22;;;;;;;9.80;5.73;;;8.70;99.90;;;;;;4129932;28;20042;-61
2023/10/31 04:42:23;;;;;;;9.60;6.30;;;8.70;99.90;;;;;;4133540;28;20042;-63
2023/10/31 04:44:24;;;;;;;12.50;7.17;;;8.70;99.90;;;;;;4132910;28;20038;-61
2023/10/31 04:46:28;;;;;;;13.60;6.40;;;8.80;99.90;;;;;;4129029;28;20034;-64
2023/10/31 04:48:29;;;;;;;22.10;8.87;;;8.80;99.90;;;;;;4129052;28;20552;-64
2023/10/31 04:50:30;;;;;;;14.10;7.97;;;8.70;99.90;;;;;;4128981;28;20038;-63
2023/10/31 04:52:32;;;;;;;15.13;8.13;;;8.70;99.90;;;;;;4129819;28;20458;-60
2023/10/31 04:54:33;;;;;;;17.73;8.90;;;8.60;99.90;;;;;;4128082;28;20675;-61
2023/10/31 04:56:34;;;;;;;16.03;8.87;;;8.50;99.90;;;;;;4128500;28;20030;-61
2023/10/31 04:58:35;;;;;;;13.67;7.70;;;8.40;99.90;;;;;;4128603;28;20611;-63
2023/10/31 05:00:36;;;;;;;16.97;9.43;;;8.30;99.90;;;;;;4129891;28;20056;-63
2023/10/31 05:02:37;;;;;;;18.07;9.13;;;8.30;99.90;;;;;;4128347;28;20100;-60
2023/10/31 05:04:40;;;;;;;21.73;10.13;;;8.20;99.90;;;;;;4129567;28;20030;-62
2023/10/31 05:06:42;;;;;;;18.70;9.77;;;8.20;99.90;;;;;;4127405;28;20038;-62
2023/10/31 05:08:43;;;;;;;17.83;9.33;;;8.10;99.90;;;;;;4129208;28;20801;-59
2023/10/31 05:10:44;;;;;;;19.80;9.47;;;8.10;99.90;;;;;;4129503;28;20093;-61
2023/10/31 05:12:45;;;;;;;19.60;8.83;;;8.00;99.90;;;;;;4128801;28;20058;-61
2023/10/31 05:14:46;;;;;;;17.00;9.03;;;8.00;99.90;;;;;;4120483;28;20042;-62
2023/10/31 05:16:47;;;;;;;19.30;9.50;;;8.00;99.90;;;;;;4128485;28;20120;-62
2023/10/31 05:18:48;;;;;;;16.07;8.23;;;8.10;99.90;;;;;;4122612;28;20050;-62
2023/10/31 05:20:49;;;;;;;19.27;9.37;;;8.20;99.90;;;;;;4128916;28;20051;-63
2023/10/31 05:22:51;;;;;;;16.33;8.53;;;8.40;99.90;;;;;;4129728;28;20026;-62
2023/10/31 05:24:52;;;;;;;11.97;7.57;;;8.60;99.90;;;;;;4122505;28;20124;-61
2023/10/31 05:26:53;;;;;;;14.07;8.30;;;8.80;99.90;;;;;;4128916;28;20049;-62
2023/10/31 05:28:54;;;;;;;16.63;8.00;;;9.20;99.90;;;;;;4127794;28;20101;-63
2023/10/31 05:30:55;;;;;;;13.90;6.77;;;9.60;99.90;;;;;;4129387;28;20482;-65
2023/10/31 05:32:56;;;;;;;12.57;6.20;;;10.00;99.90;;;;;;4127434;28;20077;-61
2023/10/31 05:34:57;;;;;;;19.20;6.73;;;10.30;99.90;;;;;;4128301;28;20030;-61
2023/10/31 05:36:59;;;;;;;21.13;7.70;;;10.50;99.90;;;;;;4128793;28;20069;-62
2023/10/31 05:39:01;;;;;;;15.57;9.40;;;11.00;99.90;;;;;;4127286;28;20112;-63
2023/10/31 05:41:02;;;;;;;20.17;8.03;;;11.30;99.90;;;;;;4128596;28;20026;-63
2023/10/31 05:43:03;;;;;;;21.03;10.50;;;11.50;99.90;;;;;;4128312;28;20084;-65
2023/10/31 05:45:05;;;;;;;16.87;8.80;;;11.70;99.90;;;;;;4128636;28;20368;-63
2023/10/31 05:47:06;;;;;;;23.03;8.97;;;11.90;99.90;;;;;;4127421;28;20035;-62
2023/10/31 05:49:08;;;;;;;19.63;8.27;;;12.00;99.90;;;;;;4128901;28;20097;-63
2023/10/31 05:51:17;;;;;;;15.67;7.43;;;12.20;99.90;;;;;;4127796;28;20046;-62
2023/10/31 05:53:18;;;;;;;16.97;8.67;;;12.40;99.90;;;;;;4128708;28;20065;-62
2023/10/31 05:55:19;;;;;;;20.55;7.75;;;12.80;99.90;;;;;;4128356;28;20100;-62
2023/10/31 05:57:20;;;;;;;16.33;8.15;;;13.10;99.90;;;;;;4129497;28;20345;-63
2023/10/31 05:59:21;;;;;;;20.75;7.35;;;13.40;99.90;;;;;;4128284;28;20046;-62
2023/10/31 06:01:23;;;;;;;20.55;7.65;;;13.70;99.90;;;;;;4128513;28;20042;-60
2023/10/31 06:03:24;;;;;;;18.42;7.15;;;14.00;99.90;;;;;;4127093;28;20050;-65
2023/10/31 06:05:25;;;;;;;17.85;8.55;;;14.30;99.90;;;;;;4127809;28;20045;-62
2023/10/31 06:07:26;;;;;;;21.35;9.82;;;14.30;99.90;;;;;;4113359;28;20159;-63
2023/10/31 06:09:27;;;;;;;18.30;9.02;;;14.30;99.90;;;;;;4128549;28;20034;-63
2023/10/31 06:11:28;;;;;;;18.42;8.90;;;14.30;99.90;;;;;;4127855;28;20022;-61
2023/10/31 06:13:31;;;;;;;25.15;8.65;;;14.40;99.90;;;;;;4118496;28;20200;-65
2023/10/31 06:15:32;;;;;;;16.95;8.07;;;14.70;99.90;;;;;;4123839;28;20087;-63
2023/10/31 06:17:34;;;;;;;13.40;7.75;;;15.00;99.90;;;;;;4128134;28;20085;-61
2023/10/31 06:19:36;;;;;;;15.82;8.05;;;15.30;99.90;;;;;;4129096;28;20554;-61
2023/10/31 06:21:37;;;;;;;16.10;6.85;;;15.50;99.90;;;;;;4128299;28;20061;-61
2023/10/31 06:23:38;;;;;;;19.08;7.43;;;15.30;99.90;;;;;;4128957;28;20111;-61
2023/10/31 06:25:40;;;;;;;20.05;7.32;;;15.10;99.90;;;;;;4128587;28;20088;-63
2023/10/31 06:27:41;;;;;;;19.25;8.30;;;15.20;99.90;;;;;;4129760;28;20030;-62
2023/10/31 06:29:42;;;;;;;13.88;8.02;;;15.50;99.90;;;;;;4127839;28;20030;-64
2023/10/31 06:31:43;;;;;;;13.90;6.55;;;15.80;99.90;;;;;;4129614;28;20034;-65
2023/10/31 06:33:44;;;;;;;12.48;6.22;;;16.20;99.90;;;;;;4127709;28;20046;-65
2023/10/31 06:35:45;;;;;;;13.07;5.88;;;16.50;99.90;;;;;;4128837;28;20046;-64
2023/10/31 06:37:46;;;;;;;10.55;6.15;;;16.70;99.90;;;;;;4127929;28;20471;-61
2023/10/31 06:39:48;;;;;;;11.88;5.50;;;16.90;99.90;;;;;;4128294;28;20018;-63
2023/10/31 06:41:49;;;;;;;14.40;6.82;;;17.30;99.90;;;;;;4127574;28;20073;-63
2023/10/31 06:43:50;;;;;;;13.20;6.50;;;17.40;99.90;;;;;;4128008;28;20042;-62
2023/10/31 06:45:51;;;;;;;17.77;7.28;;;17.80;99.90;;;;;;4128615;28;20042;-61
2023/10/31 06:47:53;;;;;;;20.10;9.45;;;18.50;99.90;;;;;;4127987;28;20136;-60
2023/10/31 06:49:54;;;;;;;12.82;5.82;;;18.80;99.90;;;;;;4129094;28;20054;-63
2023/10/31 06:51:55;;;;;;;13.45;4.90;;;18.80;99.90;;;;;;4127686;28;20070;-63
2023/10/31 06:53:56;;;;;;;12.88;5.28;;;18.00;99.90;;;;;;4128538;28;20030;-62
2023/10/31 06:55:57;;;;;;;11.90;5.63;;;17.20;99.90;;;;;;4127600;28;20431;-63
2023/10/31 06:57:58;;;;;;;11.90;5.28;;;16.70;99.90;;;;;;4128773;28;20077;-63
2023/10/31 06:59:59;;;;;;;14.00;5.68;;;16.10;99.90;;;;;;4127709;28;20141;-62
2023/10/31 07:02:02;;;;;;;9.65;4.05;;;15.60;99.90;;;;;;4127331;28;20092;-62
2023/10/31 07:04:03;;;;;;;9.18;5.47;;;15.20;99.90;;;;;;4127703;28;20120;-62
2023/10/31 07:06:05;;;;;;;12.27;6.15;;;15.00;99.90;;;;;;4128630;28;20447;-65
2023/10/31 07:08:06;;;;;;;14.80;6.50;;;14.80;99.90;;;;;;4127724;28;20014;-62
2023/10/31 07:10:07;;;;;;;11.63;5.90;;;14.50;99.90;;;;;;4128349;28;20014;-63
2023/10/31 07:12:08;;;;;;;10.48;5.22;;;14.40;99.90;;;;;;4127941;28;20069;-63
2023/10/31 07:14:09;;;;;;;8.10;4.00;;;14.30;99.90;;;;;;4128014;28;20744;-63
2023/10/31 07:16:11;;;;;;;8.10;3.42;;;14.20;99.90;;;;;;4127921;28;20051;-59
2023/10/31 07:18:12;;;;;;;6.88;3.17;;;14.10;99.90;;;;;;4127613;28;20030;-60
2023/10/31 07:20:13;;;;;;;10.45;4.00;;;14.10;99.90;;;;;;4128669;28;20316;-60
2023/10/31 07:22:15;;;;;;;7.47;3.35;;;14.20;99.90;;;;;;4127784;28;20084;-63
2023/10/31 07:24:16;;;;;;;7.68;3.60;;;14.30;99.90;;;;;;4128460;28;20085;-61
2023/10/31 07:26:17;;;;;;;6.45;3.60;;;14.40;99.90;;;;;;4127357;28;20471;-62
2023/10/31 07:28:20;;;;;;;8.45;3.33;;;14.40;99.90;;;;;;4128190;28;20030;-61
2023/10/31 07:30:21;;;;;;;10.20;3.65;;;14.40;99.90;;;;;;4127057;28;20073;-63
2023/10/31 07:32:22;;;;;;;5.85;3.45;;;14.30;99.90;;;;;;4128520;28;20030;-64
2023/10/31 07:34:23;;;;;;;4.65;3.05;;;14.40;99.90;;;;;;4127135;28;20035;-66
2023/10/31 07:36:25;;;;;;;16.17;7.75;;;14.50;99.90;;;;;;4128318;28;20045;-63
2023/10/31 07:38:26;;;;;;;16.17;5.85;;;14.50;99.90;;;;;;4127254;28;20049;-63
2023/10/31 07:40:27;;;;;;;18.15;8.40;;;14.50;99.90;;;;;;4127952;28;20118;-64
2023/10/31 07:42:28;;;;;;;9.18;5.88;;;14.60;99.90;;;;;;4127555;28;20031;-64
2023/10/31 07:44:30;;;;;;;13.00;5.13;;;14.70;99.90;;;;;;4127726;28;20039;-62
2023/10/31 07:46:31;;;;;;;20.65;10.20;;;14.70;99.90;;;;;;4127580;28;20074;-62
2023/10/31 07:48:32;;;;;;;20.55;8.98;;;14.80;99.90;;;;;;4127377;28;20162;-65
2023/10/31 07:50:33;;;;;;;8.18;3.70;;;14.90;99.90;;;;;;4128040;28;20403;-63
2023/10/31 07:52:34;;;;;;;9.63;3.35;;;15.10;99.90;;;;;;4127508;28;20046;-63
2023/10/31 07:54:40;;;;;;;10.07;3.20;;;15.20;99.90;;;;;;4128307;28;20088;-65
2023/10/31 07:56:41;;;;;;;9.52;4.05;;;15.30;99.90;;;;;;4127049;28;20050;-65
2023/10/31 07:58:42;;;;;;;4.95;3.15;;;15.40;99.90;;;;;;4128414;28;20692;-64
2023/10/31 08:00:43;;;;;;;10.57;3.55;;;15.60;99.90;;;;;;4126725;28;20124;-65
2023/10/31 08:02:44;;;;;;;5.35;3.58;;;15.90;99.90;;;;;;4130126;28;20089;-66
2023/10/31 08:04:45;;;;;;;10.18;4.45;;;16.20;99.90;;;;;;4130291;28;21003;-63
2023/10/31 08:06:46;;;;;;;7.43;3.53;;;16.30;99.90;;;;;;4131460;28;20084;-64
2023/10/31 08:08:48;;;;;;;19.20;3.95;;;16.50;99.90;;;;;;4130031;28;20487;-64
2023/10/31 08:10:49;;;;;;;13.13;3.60;;;16.80;99.90;;;;;;4131006;28;20467;-63
2023/10/31 08:12:50;;;;;;;6.47;2.80;;;16.90;99.90;;;;;;4130144;28;20077;-63
2023/10/31 08:14:51;;;;;;;7.75;2.92;;;17.10;99.90;;;;;;4130681;28;20042;-62
2023/10/31 08:16:52;;;;;;;5.22;2.97;;;17.30;99.90;;;;;;4130285;28;20054;-60
2023/10/31 08:18:53;;;;;;;11.50;3.50;;;17.40;99.90;;;;;;4130287;28;20097;-62
2023/10/31 08:20:54;;;;;;;8.13;3.10;;;17.40;99.90;;;;;;4130646;28;20038;-62
2023/10/31 08:22:55;;;;;;;8.02;3.30;;;17.30;99.90;;;;;;4130019;28;20038;-63
2023/10/31 08:24:57;;;;;;;8.98;3.85;;;17.20;99.90;;;;;;4145606;28;20038;-63
2023/10/31 08:26:58;;;;;;;13.55;3.63;;;17.20;99.90;;;;;;4129469;28;20097;-61
2023/10/31 08:28:59;;;;;;;9.15;3.80;;;17.30;99.90;;;;;;4130935;28;20471;-61
2023/10/31 08:31:01;;;;;;;6.25;2.55;;;17.40;99.90;;;;;;4129762;28;20038;-64
2023/10/31 08:33:02;;;;;;;5.88;2.47;;;17.60;99.90;;;;;;4130922;28;20050;-61
2023/10/31 08:35:03;;;;;;;7.78;3.60;;;18.00;99.70;;;;;;4129635;28;20038;-62
2023/10/31 08:37:04;;;;;;;10.40;4.18;;;18.20;99.30;;;;;;4130858;28;20042;-61
2023/10/31 08:39:05;;;;;;;10.07;3.92;;;18.40;98.90;;;;;;4129635;28;21124;-62
2023/10/31 08:41:07;;;;;;;8.40;3.63;;;18.50;98.80;;;;;;4130784;28;20027;-64
2023/10/31 08:43:08;;;;;;;9.90;3.60;;;18.40;98.60;;;;;;4129761;28;20415;-62
2023/10/31 08:45:09;;;;;;;13.55;4.20;;;18.30;98.70;;;;;;4130166;28;20418;-64
2023/10/31 08:47:12;;;;;;;9.32;4.35;;;18.30;99.00;;;;;;4129875;28;20065;-62
2023/10/31 08:49:14;;;;;;;7.68;3.60;;;18.30;99.10;;;;;;4129586;28;20147;-60
2023/10/31 08:51:15;;;;;;;10.48;3.97;;;18.40;99.10;;;;;;4130017;28;20089;-63
2023/10/31 08:53:18;;;;;;;8.90;3.38;;;18.30;98.90;;;;;;4129670;28;20406;-62
2023/10/31 08:55:20;;;;;;;5.25;2.35;;;18.20;98.90;;;;;;4130507;28;20085;-64
2023/10/31 08:57:22;;;;;;;12.35;2.70;;;18.10;98.80;;;;;;4144093;28;20079;-62
2023/10/31 08:59:23;;;;;;;11.13;3.42;;;17.80;98.60;;;;;;4130656;28;20426;-62
2023/10/31 09:01:26;;;;;;;11.02;3.22;;;17.80;98.90;;;;;;4129085;28;20120;-62
2023/10/31 09:03:27;;;;;;;7.30;3.13;;;17.80;98.90;;;;;;4130652;28;20065;-63
2023/10/31 09:05:28;;;;;;;7.63;2.65;;;17.80;98.70;;;;;;4129390;28;20414;-64
2023/10/31 09:07:29;;;;;;;4.93;3.10;;;17.90;98.70;;;;;;4129078;28;20092;-61
2023/10/31 09:09:30;;;;;;;9.50;2.65;;;17.90;98.60;;;;;;4129083;28;20077;-61
2023/10/31 09:11:31;;;;;;;11.50;2.40;;;18.10;98.40;;;;;;4130292;28;20416;-59
2023/10/31 09:13:32;;;;;;;7.03;2.67;;;18.20;98.10;;;;;;4127301;28;20042;-62
2023/10/31 09:15:34;;;;;;;5.70;2.60;;;18.10;97.90;;;;;;4129506;28;20092;-63
2023/10/31 09:17:35;;;;;;;7.88;2.97;;;18.10;97.90;;;;;;4128822;28;20034;-62
2023/10/31 09:19:36;;;;;;;4.22;2.33;;;18.10;97.90;;;;;;4129325;28;20088;-60
2023/10/31 09:21:37;;;;;;;6.15;2.47;;;18.20;97.60;;;;;;4129971;28;20188;-60
2023/10/31 09:23:38;;;;;;;4.38;2.05;;;18.30;97.30;;;;;;4129500;28;20076;-63
2023/10/31 09:25:39;;;;;;;11.52;4.03;;;18.30;97.20;;;;;;4128492;28;20069;-59
2023/10/31 09:27:41;;;;;;;4.03;2.22;;;18.30;97.20;;;;;;4127044;28;20038;-59
2023/10/31 09:29:43;;;;;;;6.40;2.88;;;18.30;97.30;;;;;;4129578;28;20450;-61
2023/10/31 09:31:44;;;;;;;5.10;2.67;;;18.40;97.20;;;;;;4128938;28;20035;-59
2023/10/31 09:33:46;;;;;;;4.25;3.10;;;18.40;97.00;;;;;;4130144;28;20053;-59
2023/10/31 09:35:47;;;;;;;7.00;3.00;;;18.40;97.10;;;;;;4123781;28;20430;-56
2023/10/31 09:37:48;;;;;;;14.15;6.57;;;18.50;97.10;;;;;;4129772;28;20050;-57
2023/10/31 09:39:49;;;;;;;14.93;6.90;;;18.50;97.00;;;;;;4128204;28;20042;-61
2023/10/31 09:41:50;;;;;;;19.30;8.73;;;18.60;96.90;;;;;;4129990;28;20121;-61
2023/10/31 09:43:53;;;;;;;20.23;7.43;;;18.80;96.80;;;;;;4128770;28;20475;-59
2023/10/31 09:45:56;;;;;;;6.13;2.80;;;18.90;96.40;;;;;;4119294;28;20101;-60
2023/10/31 09:48:02;;;;;;;11.43;2.85;;;19.10;96.00;;;;;;4128431;28;20039;-58
2023/10/31 09:50:04;;;;;;;5.25;1.67;;;19.20;95.40;;;;;;4128363;28;20050;-62
2023/10/31 09:52:07;;;;;;;4.20;2.00;;;19.20;95.20;;;;;;4129228;28;20475;-61
2023/10/31 09:54:09;;;;;;;4.93;1.70;;;19.30;95.10;;;;;;4127583;28;20583;-61
2023/10/31 09:56:10;;;;;;;3.63;1.77;;;19.40;95.00;;;;;;4128213;28;20473;-61
2023/10/31 09:58:11;;;;;;;3.10;1.70;;;19.50;95.20;;;;;;4128293;28;20039;-60
2023/10/31 10:00:13;;;;;;;6.10;1.88;;;19.50;94.80;;;;;;4129297;28;20042;-60
2023/10/31 10:02:14;;;;;;;7.60;2.42;;;19.60;94.80;;;;;;4128636;28;20466;-59
2023/10/31 10:04:17;;;;;;;3.70;1.88;;;19.70;94.80;;;;;;4129741;28;20089;-58
2023/10/31 10:06:21;;;;;;;5.53;2.20;;;19.90;94.60;;;;;;4115822;28;20043;-61
2023/10/31 10:08:22;;;;;;;4.78;2.28;;;20.00;94.20;;;;;;4113377;28;20038;-60
2023/10/31 10:10:24;;;;;;;4.85;2.00;;;20.10;93.80;;;;;;4111365;28;20046;-60
2023/10/31 10:12:26;;;;;;;5.70;1.98;;;20.20;93.80;;;;;;4128236;28;20446;-58
2023/10/31 10:14:28;;;;;;;6.43;2.70;;;20.30;93.70;;;;;;4118097;28;20112;-59
2023/10/31 10:16:33;;;;;;;9.65;2.65;;;20.30;93.60;;;;;;4128431;28;20050;-64
2023/10/31 10:18:37;;;;;;;5.60;2.58;;;20.20;93.40;;;;;;4122326;28;20050;-57
2023/10/31 10:20:58;;;;;;;6.03;2.22;;;20.20;93.60;;;;;;4129024;28;20046;-60
2023/10/31 10:23:03;;;;;;;;;;;20.30;92.80;;;;;;4128550;28;20038;-59
2023/10/31 10:25:11;;;;;;;4.05;2.03;;;20.40;92.80;;;;;;4127839;28;19906;-58
2023/10/31 10:27:12;;;;;;;6.30;2.30;;;20.10;93.20;;;;;;4127317;28;20410;-60
2023/10/31 10:29:14;;;;;;;3.85;2.22;;;20.10;93.30;;;;;;4127334;28;20050;-54